createdAt,value
2023-10-13T00:02:02.067Z,16.20
2023-10-13T00:04:30.238Z,16.35
2023-10-13T00:06:57.138Z,16.26
2023-10-13T00:09:27.407Z,16.31
2023-10-13T00:11:53.836Z,16.41
2023-10-13T00:14:20.583Z,16.35
2023-10-13T00:16:47.073Z,16.28
2023-10-13T00:19:13.531Z,16.18
2023-10-13T00:21:40.188Z,16.24
2023-10-13T00:24:07.197Z,16.17
2023-10-13T00:26:34.005Z,16.19
2023-10-13T00:29:01.762Z,16.19
2023-10-13T00:31:28.534Z,16.27
2023-10-13T00:33:54.942Z,16.25
2023-10-13T00:36:21.327Z,16.21
2023-10-13T00:38:47.731Z,16.34
2023-10-13T00:41:14.112Z,16.40
2023-10-13T00:43:48.390Z,16.51
2023-10-13T00:46:14.959Z,16.47
2023-10-13T00:48:43.656Z,16.20
2023-10-13T00:51:13.062Z,16.18
2023-10-13T00:53:41.397Z,16.15
2023-10-13T00:56:09.090Z,16.04
2023-10-13T00:58:35.810Z,16.10
2023-10-13T01:01:02.829Z,16.16
2023-10-13T01:03:29.226Z,16.20
2023-10-13T01:05:57.807Z,16.22
2023-10-13T01:08:34.437Z,16.17
2023-10-13T01:11:01.296Z,16.20
2023-10-13T01:13:27.731Z,16.35
2023-10-13T01:15:54.149Z,16.37
2023-10-13T01:18:20.556Z,16.23
2023-10-13T01:20:47.007Z,16.32
2023-10-13T01:23:14.212Z,16.16
2023-10-13T01:25:40.588Z,16.16
2023-10-13T01:28:06.998Z,16.22
2023-10-13T01:30:33.389Z,16.21
2023-10-13T01:32:59.806Z,16.30
2023-10-13T01:35:26.260Z,16.38
2023-10-13T01:37:52.995Z,16.40
2023-10-13T01:40:19.455Z,16.35
2023-10-13T01:42:47.438Z,16.37
2023-10-13T01:45:13.871Z,16.42
2023-10-13T01:47:40.343Z,16.36
2023-10-13T01:50:07.910Z,16.33
2023-10-13T01:52:34.312Z,16.20
2023-10-13T01:55:00.675Z,16.24
2023-10-13T01:57:27.043Z,16.31
2023-10-13T01:59:53.396Z,16.45
2023-10-13T02:02:19.810Z,16.49
2023-10-13T02:04:46.287Z,16.50
2023-10-13T02:07:12.747Z,16.41
2023-10-13T02:09:39.134Z,16.33
2023-10-13T02:12:05.701Z,16.29
2023-10-13T02:14:32.042Z,16.34
2023-10-13T02:16:58.423Z,16.33
2023-10-13T02:19:24.896Z,16.24
2023-10-13T02:21:51.254Z,16.26
2023-10-13T02:24:17.613Z,16.22
2023-10-13T02:26:43.999Z,16.21
2023-10-13T02:29:10.376Z,16.29
2023-10-13T02:31:38.027Z,16.34
2023-10-13T02:34:05.302Z,16.24
2023-10-13T02:36:31.685Z,16.17
2023-10-13T02:38:58.038Z,16.20
2023-10-13T02:41:24.373Z,16.38
2023-10-13T02:43:50.757Z,16.26
2023-10-13T02:46:17.227Z,16.32
2023-10-13T02:48:44.183Z,16.45
2023-10-13T02:51:10.520Z,16.27
2023-10-13T02:53:36.888Z,16.27
2023-10-13T02:56:03.322Z,16.18
2023-10-13T02:58:29.763Z,16.16
2023-10-13T03:00:56.177Z,16.26
2023-10-13T03:03:22.610Z,16.23
2023-10-13T03:05:49.028Z,16.28
2023-10-13T03:08:15.383Z,16.26
2023-10-13T03:10:41.785Z,16.29
2023-10-13T03:13:08.243Z,16.42
2023-10-13T03:15:35.017Z,16.55
2023-10-13T03:18:01.538Z,16.50
2023-10-13T03:20:27.977Z,16.46
2023-10-13T03:22:54.405Z,16.34
2023-10-13T03:25:20.853Z,16.43
2023-10-13T03:27:47.231Z,16.48
2023-10-13T03:30:13.771Z,16.46
2023-10-13T03:32:40.173Z,16.39
2023-10-13T03:35:07.190Z,16.40
2023-10-13T03:37:33.588Z,16.38
2023-10-13T03:40:00.021Z,16.45
2023-10-13T03:42:26.368Z,16.47
2023-10-13T03:44:52.751Z,16.35
2023-10-13T03:47:19.235Z,16.43
2023-10-13T03:49:46.527Z,16.52
2023-10-13T03:52:12.956Z,16.40
2023-10-13T03:54:39.345Z,16.44
2023-10-13T03:57:05.702Z,16.42
2023-10-13T03:59:32.061Z,16.49
2023-10-13T04:01:58.532Z,16.58
2023-10-13T04:04:25.664Z,16.55
2023-10-13T04:06:52.111Z,16.61
2023-10-13T04:09:20.381Z,16.39
2023-10-13T04:11:46.817Z,16.57
2023-10-13T04:14:13.191Z,16.53
2023-10-13T04:16:39.599Z,16.55
2023-10-13T04:19:06.210Z,16.57
2023-10-13T04:21:32.561Z,16.57
2023-10-13T04:23:58.924Z,16.49
2023-10-13T04:26:25.334Z,16.46
2023-10-13T04:28:51.701Z,16.40
2023-10-13T04:31:18.144Z,16.40
2023-10-13T04:33:44.555Z,16.45
2023-10-13T04:36:13.115Z,16.56
2023-10-13T04:38:39.444Z,16.53
2023-10-13T04:41:05.816Z,16.53
2023-10-13T04:43:32.203Z,16.56
2023-10-13T04:46:00.870Z,16.68
2023-10-13T04:48:27.343Z,16.59
2023-10-13T04:50:53.778Z,16.54
2023-10-13T04:53:20.151Z,16.53
2023-10-13T04:55:50.223Z,16.56
2023-10-13T04:58:16.601Z,16.58
2023-10-13T05:00:42.964Z,16.54
2023-10-13T05:03:09.355Z,16.52
2023-10-13T05:05:35.748Z,16.39
2023-10-13T05:08:02.132Z,16.48
2023-10-13T05:10:29.407Z,16.50
2023-10-13T05:12:55.793Z,16.49
2023-10-13T05:15:22.149Z,16.49
2023-10-13T05:17:48.649Z,16.50
2023-10-13T05:20:15.116Z,16.56
2023-10-13T05:22:41.558Z,16.37
2023-10-13T05:25:08.017Z,16.22
2023-10-13T05:27:34.394Z,16.19
2023-10-13T05:30:00.747Z,16.15
2023-10-13T05:32:27.430Z,16.10
2023-10-13T05:34:53.934Z,16.19
2023-10-13T05:37:20.377Z,16.15
2023-10-13T05:39:46.802Z,16.14
2023-10-13T05:42:13.174Z,16.23
2023-10-13T05:44:39.567Z,16.27
2023-10-13T05:47:06.202Z,16.30
2023-10-13T05:49:32.696Z,16.39
2023-10-13T05:51:59.141Z,16.39
2023-10-13T05:54:25.654Z,16.43
2023-10-13T05:56:53.207Z,16.48
2023-10-13T05:59:19.708Z,16.54
2023-10-13T06:01:46.368Z,16.43
2023-10-13T06:04:12.851Z,16.43
2023-10-13T06:06:39.286Z,16.47
2023-10-13T06:09:05.617Z,16.42
2023-10-13T06:11:31.987Z,16.41
2023-10-13T06:13:58.347Z,16.55
2023-10-13T06:16:24.918Z,16.64
2023-10-13T06:18:51.387Z,16.66
2023-10-13T06:21:17.747Z,16.68
2023-10-13T06:23:44.115Z,16.64
2023-10-13T06:26:10.471Z,16.63
2023-10-13T06:28:36.857Z,16.40
2023-10-13T06:31:05.950Z,16.43
2023-10-13T06:33:35.578Z,16.57
2023-10-13T06:36:03.278Z,16.67
2023-10-13T06:38:30.538Z,16.63
2023-10-13T06:40:57.088Z,16.61
2023-10-13T06:43:24.445Z,16.44
2023-10-13T06:45:52.556Z,16.37
2023-10-13T06:48:18.963Z,16.46
2023-10-13T06:50:49.482Z,16.45
2023-10-13T06:53:15.835Z,16.43
2023-10-13T06:55:42.220Z,16.63
2023-10-13T06:58:08.639Z,16.63
2023-10-13T07:00:34.972Z,16.58
2023-10-13T07:03:02.269Z,16.55
2023-10-13T07:05:28.893Z,16.61
2023-10-13T07:07:55.365Z,16.68
2023-10-13T07:10:21.796Z,16.64
2023-10-13T07:12:48.185Z,16.65
2023-10-13T07:15:14.668Z,16.62
2023-10-13T07:17:41.152Z,16.58
2023-10-13T07:20:08.643Z,16.57
2023-10-13T07:22:35.034Z,16.49
2023-10-13T07:25:01.428Z,16.50
2023-10-13T07:27:27.817Z,16.48
2023-10-13T07:29:56.590Z,16.71
2023-10-13T07:32:26.049Z,16.79
2023-10-13T07:34:56.290Z,16.88
2023-10-13T07:37:23.957Z,17.09
2023-10-13T07:39:50.359Z,17.04
2023-10-13T07:42:16.718Z,17.06
2023-10-13T07:44:43.093Z,17.20
2023-10-13T07:47:09.625Z,17.22
2023-10-13T07:49:39.860Z,17.04
2023-10-13T07:52:09.584Z,17.15
2023-10-13T07:54:35.962Z,17.21
2023-10-13T07:57:02.312Z,17.32
2023-10-13T07:59:28.649Z,17.32
2023-10-13T08:01:55.073Z,17.40
2023-10-13T08:04:21.505Z,17.46
2023-10-13T08:06:47.857Z,17.24
2023-10-13T08:09:14.388Z,17.24
2023-10-13T08:11:41.132Z,17.21
2023-10-13T08:14:12.977Z,17.13
2023-10-13T08:16:49.214Z,17.20
2023-10-13T08:19:17.629Z,17.24
2023-10-13T08:21:45.477Z,17.39
2023-10-13T08:24:11.839Z,17.29
2023-10-13T08:26:38.228Z,17.47
2023-10-13T08:29:05.518Z,17.72
2023-10-13T08:31:32.337Z,17.77
2023-10-13T08:33:58.775Z,17.95
2023-10-13T08:36:25.162Z,18.01
2023-10-13T08:38:51.635Z,18.17
2023-10-13T08:41:18.065Z,18.05
2023-10-13T08:43:44.937Z,18.27
2023-10-13T08:46:12.725Z,18.32
2023-10-13T08:48:40.617Z,18.39
2023-10-13T08:51:07.088Z,18.61
2023-10-13T08:53:33.728Z,18.83
2023-10-13T08:56:10.421Z,18.92
2023-10-13T08:58:38.660Z,19.23
2023-10-13T09:01:05.048Z,19.35
2023-10-13T09:03:31.470Z,19.54
2023-10-13T09:05:57.890Z,19.36
2023-10-13T09:08:27.969Z,19.11
2023-10-13T09:10:59.273Z,19.29
2023-10-13T09:13:35.567Z,19.48
2023-10-13T09:16:10.381Z,19.48
2023-10-13T09:18:36.675Z,19.50
2023-10-13T09:21:03.033Z,19.43
2023-10-13T09:23:29.370Z,19.60
2023-10-13T09:26:06.386Z,19.54
2023-10-13T09:28:32.882Z,19.50
2023-10-13T09:30:59.351Z,19.42
2023-10-13T09:33:28.059Z,19.48
2023-10-13T09:35:54.484Z,19.79
2023-10-13T09:38:21.268Z,20.14
2023-10-13T09:40:47.907Z,20.11
2023-10-13T09:43:14.364Z,20.24
2023-10-13T09:45:40.856Z,20.21
2023-10-13T09:48:11.417Z,20.17
2023-10-13T09:50:39.914Z,20.11
2023-10-13T09:53:06.690Z,20.07
2023-10-13T09:55:37.667Z,20.10
2023-10-13T09:58:11.734Z,20.05
2023-10-13T10:00:44.611Z,20.08
2023-10-13T10:03:11.254Z,19.94
2023-10-13T10:05:37.757Z,19.98
2023-10-13T10:08:04.495Z,20.03
2023-10-13T10:11:01.556Z,19.98
2023-10-13T10:13:45.193Z,20.03
2023-10-13T10:16:16.377Z,20.15
2023-10-13T10:18:43.081Z,20.31
2023-10-13T10:21:09.460Z,20.41
2023-10-13T10:23:35.878Z,20.39
2023-10-13T10:26:11.999Z,20.56
2023-10-13T10:28:39.708Z,20.73
2023-10-13T10:31:07.358Z,20.88
2023-10-13T10:33:33.838Z,20.82
2023-10-13T10:36:02.010Z,20.69
2023-10-13T10:38:28.410Z,20.90
2023-10-13T10:41:07.139Z,21.16
2023-10-13T10:43:38.505Z,21.28
2023-10-13T10:46:05.203Z,21.61
2023-10-13T10:48:32.936Z,21.86
2023-10-13T10:50:59.629Z,22.04
2023-10-13T10:53:26.177Z,22.31
2023-10-13T10:55:52.587Z,22.05
2023-10-13T10:58:19.015Z,21.96
2023-10-13T11:00:45.431Z,21.85
2023-10-13T11:03:11.859Z,21.67
2023-10-13T11:05:46.208Z,21.49
2023-10-13T11:08:25.272Z,21.43
2023-10-13T11:10:51.693Z,21.53
2023-10-13T11:13:18.125Z,21.82
2023-10-13T11:15:45.434Z,21.89
2023-10-13T11:18:12.254Z,21.95
2023-10-13T11:20:43.160Z,22.01
2023-10-13T11:23:13.453Z,22.41
2023-10-13T11:25:40.144Z,22.27
2023-10-13T11:28:17.647Z,22.14
2023-10-13T11:30:45.161Z,22.38
2023-10-13T11:33:12.280Z,22.45
2023-10-13T11:35:40.180Z,22.36
2023-10-13T11:38:06.585Z,22.62
2023-10-13T11:40:33.200Z,22.79
2023-10-13T11:45:27.284Z,23.12
2023-10-13T11:47:53.832Z,23.38
2023-10-13T11:50:20.236Z,23.35
2023-10-13T11:52:46.610Z,23.39
2023-10-13T11:55:13.018Z,23.34
2023-10-13T11:57:39.372Z,23.89
2023-10-13T12:00:06.463Z,24.08
2023-10-13T12:02:33.002Z,23.56
2023-10-13T12:04:59.518Z,23.85
2023-10-13T12:07:26.307Z,23.85
2023-10-13T12:09:53.174Z,23.85
2023-10-13T12:12:19.733Z,23.68
2023-10-13T12:14:46.116Z,23.56
2023-10-13T12:17:12.550Z,23.67
2023-10-13T12:19:38.936Z,23.54
2023-10-13T12:22:05.506Z,23.27
2023-10-13T12:24:31.914Z,23.37
2023-10-13T12:26:58.679Z,23.53
2023-10-13T12:29:25.445Z,23.64
2023-10-13T12:31:51.841Z,23.48
2023-10-13T12:34:18.215Z,23.67
2023-10-13T12:36:44.586Z,23.39
2023-10-13T12:39:11.023Z,23.33
2023-10-13T12:41:37.910Z,23.69
2023-10-13T12:44:06.029Z,23.53
2023-10-13T12:46:32.431Z,23.94
2023-10-13T12:48:58.872Z,24.08
2023-10-13T12:51:25.473Z,24.18
2023-10-13T12:53:53.589Z,24.37
2023-10-13T12:56:21.290Z,24.20
2023-10-13T12:58:47.730Z,24.07
2023-10-13T13:01:14.201Z,23.96
2023-10-13T13:03:40.638Z,24.18
2023-10-13T13:06:06.992Z,24.39
2023-10-13T13:08:33.641Z,24.11
2023-10-13T13:10:59.990Z,23.94
2023-10-13T13:13:26.452Z,24.02
2023-10-13T13:15:52.967Z,24.13
2023-10-13T13:18:19.402Z,24.31
2023-10-13T13:20:46.215Z,24.57
2023-10-13T13:23:12.603Z,24.67
2023-10-13T13:25:39.158Z,24.49
2023-10-13T13:28:05.852Z,24.60
2023-10-13T13:30:32.419Z,24.20
2023-10-13T13:32:58.871Z,23.89
2023-10-13T13:35:25.333Z,24.17
2023-10-13T13:37:51.858Z,24.08
2023-10-13T13:40:18.267Z,23.72
2023-10-13T13:42:45.786Z,23.80
2023-10-13T13:45:19.968Z,23.70
2023-10-13T13:47:46.417Z,23.85
2023-10-13T13:50:12.824Z,23.74
2023-10-13T13:52:39.209Z,23.59
2023-10-13T13:55:05.997Z,23.66
2023-10-13T13:57:32.372Z,23.84
2023-10-13T13:59:58.721Z,23.86
2023-10-13T14:02:25.222Z,23.53
2023-10-13T14:04:52.065Z,23.61
2023-10-13T14:07:19.755Z,23.38
2023-10-13T14:09:47.273Z,23.18
2023-10-13T14:12:15.518Z,22.91
2023-10-13T14:14:43.850Z,22.94
2023-10-13T14:17:10.318Z,22.89
2023-10-13T14:19:37.265Z,22.95
2023-10-13T14:22:03.655Z,23.04
2023-10-13T14:24:30.035Z,22.87
2023-10-13T14:26:57.562Z,22.84
2023-10-13T14:29:24.059Z,22.88
2023-10-13T14:31:50.557Z,22.65
2023-10-13T14:34:16.972Z,22.77
2023-10-13T14:36:43.358Z,22.77
2023-10-13T14:39:09.729Z,22.79
2023-10-13T14:41:37.180Z,22.72
2023-10-13T14:44:03.718Z,22.55
2023-10-13T14:46:30.180Z,22.51
2023-10-13T14:48:56.620Z,22.70
2023-10-13T14:51:23.144Z,22.61
2023-10-13T14:53:52.568Z,22.64
2023-10-13T14:56:20.651Z,22.85
2023-10-13T14:58:47.036Z,22.95
2023-10-13T15:01:18.677Z,22.92
2023-10-13T15:03:46.609Z,22.94
2023-10-13T15:06:20.000Z,22.74
2023-10-13T15:08:46.556Z,22.75
2023-10-13T15:11:15.906Z,22.69
2023-10-13T15:13:42.339Z,22.53
2023-10-13T15:16:20.215Z,22.56
2023-10-13T15:18:47.572Z,22.52
2023-10-13T15:21:24.177Z,22.53
2023-10-13T15:23:50.695Z,22.53
2023-10-13T15:26:17.049Z,22.54
2023-10-13T15:28:43.489Z,22.65
2023-10-13T15:31:12.962Z,22.54
2023-10-13T15:33:39.333Z,22.41
2023-10-13T15:36:06.110Z,22.35
2023-10-13T15:38:32.545Z,22.22
2023-10-13T15:40:59.099Z,22.16
2023-10-13T15:43:25.589Z,22.02
2023-10-13T15:45:52.003Z,22.10
2023-10-13T15:48:20.635Z,22.06
2023-10-13T15:50:48.410Z,22.05
2023-10-13T15:53:15.006Z,21.90
2023-10-13T15:55:41.665Z,21.86
2023-10-13T15:58:08.210Z,21.95
2023-10-13T16:00:38.024Z,21.87
2023-10-13T16:03:05.596Z,21.74
2023-10-13T16:05:33.475Z,21.74
2023-10-13T16:07:59.837Z,21.74
2023-10-13T16:10:26.208Z,21.67
2023-10-13T16:12:52.598Z,21.71
2023-10-13T16:15:19.057Z,21.74
2023-10-13T16:17:45.602Z,21.67
2023-10-13T16:20:12.022Z,21.56
2023-10-13T16:22:38.464Z,21.59
2023-10-13T16:25:16.627Z,21.56
2023-10-13T16:27:45.813Z,21.52
2023-10-13T16:30:14.940Z,21.48
2023-10-13T16:32:42.353Z,21.51
2023-10-13T16:35:09.213Z,21.45
2023-10-13T16:37:35.560Z,21.47
2023-10-13T16:40:01.986Z,21.44
2023-10-13T16:42:28.448Z,21.40
2023-10-13T16:44:54.866Z,21.35
2023-10-13T16:47:21.271Z,21.30
2023-10-13T16:49:47.636Z,21.39
2023-10-13T16:52:14.127Z,21.30
2023-10-13T16:54:40.530Z,21.32
2023-10-13T16:57:07.044Z,21.23
2023-10-13T16:59:33.385Z,21.25
2023-10-13T17:01:59.741Z,21.24
2023-10-13T17:04:28.458Z,21.36
2023-10-13T17:06:55.313Z,21.25
2023-10-13T17:09:21.820Z,21.13
2023-10-13T17:11:48.202Z,21.17
2023-10-13T17:14:14.600Z,21.22
2023-10-13T17:16:41.107Z,21.18
2023-10-13T17:19:07.510Z,21.18
2023-10-13T17:21:33.956Z,21.18
2023-10-13T17:24:00.662Z,21.07
2023-10-13T17:26:27.059Z,21.10
2023-10-13T17:28:53.894Z,21.06
2023-10-13T17:31:20.283Z,21.10
2023-10-13T17:33:47.534Z,21.09
2023-10-13T17:36:13.962Z,21.14
2023-10-13T17:38:40.398Z,21.04
2023-10-13T17:41:11.871Z,21.06
2023-10-13T17:43:38.507Z,20.93
2023-10-13T17:46:11.593Z,20.89
2023-10-13T17:48:39.291Z,20.72
2023-10-13T17:51:06.959Z,20.46
2023-10-13T17:53:33.681Z,20.18
2023-10-13T17:56:03.757Z,19.97
2023-10-13T17:58:30.198Z,19.91
2023-10-13T18:00:56.643Z,19.88
2023-10-13T18:03:23.134Z,19.78
2023-10-13T18:05:49.566Z,19.55
2023-10-13T18:08:15.909Z,19.46
2023-10-13T18:10:42.271Z,19.17
2023-10-13T18:13:08.641Z,19.07
2023-10-13T18:15:35.019Z,19.20
2023-10-13T18:18:01.461Z,19.11
2023-10-13T18:20:27.905Z,18.96
2023-10-13T18:22:55.576Z,18.94
2023-10-13T18:25:22.273Z,18.79
2023-10-13T18:27:48.675Z,18.57
2023-10-13T18:30:15.252Z,18.44
2023-10-13T18:32:42.674Z,18.42
2023-10-13T18:35:10.733Z,18.36
2023-10-13T18:37:37.134Z,18.32
2023-10-13T18:40:04.723Z,18.45
2023-10-13T18:42:31.102Z,18.43
2023-10-13T18:44:57.476Z,18.35
2023-10-13T18:47:23.843Z,18.31
2023-10-13T18:49:50.207Z,18.25
2023-10-13T18:52:16.550Z,18.37
2023-10-13T18:54:42.953Z,18.46
2023-10-13T18:57:09.365Z,18.45
2023-10-13T18:59:35.776Z,18.58
2023-10-13T19:02:02.267Z,18.55
2023-10-13T19:04:28.677Z,18.56
2023-10-13T19:06:55.074Z,18.58
2023-10-13T19:09:21.565Z,18.60
2023-10-13T19:11:48.042Z,18.64
2023-10-13T19:14:14.405Z,18.62
2023-10-13T19:16:41.764Z,18.59
2023-10-13T19:19:08.579Z,18.64
2023-10-13T19:21:35.065Z,18.62
2023-10-13T19:24:01.445Z,18.60
2023-10-13T19:26:29.178Z,18.37
2023-10-13T19:28:57.933Z,18.36
2023-10-13T19:31:29.000Z,18.21
2023-10-13T19:33:58.592Z,18.17
2023-10-13T19:36:25.110Z,18.13
2023-10-13T19:38:53.175Z,18.08
2023-10-13T19:41:21.756Z,18.09
2023-10-13T19:43:49.376Z,18.08
2023-10-13T19:46:16.866Z,18.19
2023-10-13T19:48:43.905Z,18.19
2023-10-13T19:51:11.183Z,18.28
2023-10-13T19:53:42.182Z,18.13
2023-10-13T19:56:15.710Z,18.21
2023-10-13T19:58:42.125Z,18.10
2023-10-13T20:01:11.350Z,18.15
2023-10-13T20:03:38.259Z,17.97
2023-10-13T20:06:04.736Z,17.89
2023-10-13T20:08:31.138Z,17.89
2023-10-13T20:10:57.512Z,17.80
2023-10-13T20:13:23.864Z,17.85
2023-10-13T20:15:50.332Z,17.89
2023-10-13T20:18:16.701Z,17.93
2023-10-13T20:20:44.167Z,17.91
2023-10-13T20:23:14.458Z,17.82
2023-10-13T20:25:44.065Z,17.81
2023-10-13T20:28:10.687Z,17.80
2023-10-13T20:30:37.251Z,17.88
2023-10-13T20:33:04.498Z,17.83
2023-10-13T20:35:30.923Z,17.74
2023-10-13T20:37:57.368Z,17.88
2023-10-13T20:40:23.817Z,17.97
2023-10-13T20:42:51.713Z,18.12
2023-10-13T20:45:20.288Z,18.05
2023-10-13T20:47:46.661Z,18.22
2023-10-13T20:50:13.121Z,18.00
2023-10-13T20:52:39.478Z,17.83
2023-10-13T20:55:06.248Z,17.81
2023-10-13T20:57:32.701Z,17.82
2023-10-13T21:00:00.074Z,17.86
2023-10-13T21:02:26.591Z,17.81
2023-10-13T21:04:53.309Z,17.91
2023-10-13T21:07:19.885Z,17.67
2023-10-13T21:09:46.315Z,17.69
2023-10-13T21:12:12.740Z,17.69
2023-10-13T21:14:39.148Z,17.25
2023-10-13T21:17:05.960Z,17.10
2023-10-13T21:19:32.407Z,17.02
2023-10-13T21:21:58.803Z,16.88
2023-10-13T21:24:25.350Z,16.85
2023-10-13T21:26:51.726Z,16.90
2023-10-13T21:29:18.061Z,16.96
2023-10-13T21:31:44.488Z,16.66
2023-10-13T21:34:11.039Z,16.62
2023-10-13T21:36:37.490Z,16.53
2023-10-13T21:39:04.566Z,16.44
2023-10-13T21:41:31.431Z,16.44
2023-10-13T21:43:59.822Z,16.47
2023-10-13T21:46:26.983Z,16.54
2023-10-13T21:48:54.431Z,16.63
2023-10-13T21:51:22.603Z,16.53
2023-10-13T21:53:49.239Z,16.60
2023-10-13T21:56:17.498Z,16.68
2023-10-13T21:58:44.306Z,16.69
2023-10-13T22:01:11.172Z,16.58
2023-10-13T22:03:37.743Z,16.73
2023-10-13T22:06:04.254Z,16.98
2023-10-13T22:08:30.712Z,17.07
2023-10-13T22:10:57.080Z,17.10
2023-10-13T22:13:23.501Z,16.96
2023-10-13T22:15:49.884Z,16.80
2023-10-13T22:18:16.289Z,16.74
2023-10-13T22:20:42.645Z,16.77
2023-10-13T22:23:09.083Z,16.63
2023-10-13T22:25:35.465Z,16.55
2023-10-13T22:28:01.896Z,16.43
2023-10-13T22:30:28.328Z,16.48
2023-10-13T22:32:54.713Z,16.50
2023-10-13T22:35:21.146Z,16.42
2023-10-13T22:37:47.968Z,16.50
2023-10-13T22:40:14.514Z,16.52
2023-10-13T22:42:41.144Z,16.44
2023-10-13T22:45:08.252Z,16.43
2023-10-13T22:47:34.612Z,16.37
2023-10-13T22:50:00.956Z,16.49
2023-10-13T22:52:27.319Z,16.45
2023-10-13T22:54:53.716Z,16.44
2023-10-13T22:57:20.118Z,16.43
2023-10-13T22:59:46.459Z,16.36
2023-10-13T23:02:12.821Z,16.37
2023-10-13T23:04:39.208Z,16.39
2023-10-13T23:07:05.730Z,16.45
2023-10-13T23:09:32.168Z,16.39
2023-10-13T23:11:58.885Z,16.36
2023-10-13T23:14:25.243Z,16.45
2023-10-13T23:16:51.741Z,16.48
2023-10-13T23:19:18.270Z,16.50
2023-10-13T23:21:44.670Z,16.53
2023-10-13T23:24:11.377Z,16.56
2023-10-13T23:26:38.066Z,16.55
2023-10-13T23:29:04.507Z,16.59
2023-10-13T23:31:31.183Z,16.60
2023-10-13T23:33:57.632Z,16.78
2023-10-13T23:36:24.119Z,16.66
2023-10-13T23:38:50.480Z,16.66
2023-10-13T23:41:16.820Z,16.73
2023-10-13T23:43:44.271Z,16.85
2023-10-13T23:46:11.909Z,16.86
2023-10-13T23:48:39.368Z,16.86
2023-10-13T23:51:05.915Z,16.96
2023-10-13T23:53:34.633Z,16.95
2023-10-13T23:56:09.221Z,17.03
2023-10-13T23:58:40.295Z,17.01
